Overview Statistics Trail Chart Weather Telemetry Raw packets
 

This is the latest recevied weather packets stored in our database for station/object ER1XDX-15. If no packets are shown the sender has not sent any weather packets the latest 10 day(s).

<< 18 19 20 21 22 23 24 >>
Time Temp. Humidity Pressure Rain* Wind** Luminosity Snow
1777277931 20° C 22% 1013.6 hPa - - - -
1777277031 22.22° C 28% 1013.7 hPa - - - -
1777276131 22.78° C 26% 1013.7 hPa - - - -
1777275230 23.33° C 23% 1013.8 hPa - - - -
1777274330 23.33° C 22% 1013.9 hPa - - - -
1777273430 23.33° C 19% 1013.8 hPa - - - -
1777272530 25° C 18% 1013.8 hPa - - - -
1777271630 24.44° C 20% 1013.8 hPa - - - -
1777270730 23.33° C 21% 1013.8 hPa - - - -
1777269830 23.89° C 20% 1013.7 hPa - - - -
1777268930 25.56° C 17% 1013.7 hPa - - - -
1777268030 26.11° C 16% 1013.8 hPa - - - -
1777267130 26.67° C 17% 1013.8 hPa - - - -
1777266230 26.11° C 17% 1013.6 hPa - - - -
1777265329 25.56° C 17% 1013.4 hPa - - - -
1777264429 25.56° C 17% 1013.2 hPa - - - -
1777263529 23.89° C 19% 1013.1 hPa - - - -
1777262629 22.78° C 21% 1012.9 hPa - - - -
1777261729 21.11° C 22% 1012.6 hPa - - - -
1777260829 20° C 23% 1012.5 hPa - - - -
1777259929 18.89° C 24% 1012.4 hPa - - - -
1777259029 18.33° C 25% 1012.1 hPa - - - -
1777258129 18.33° C 25% 1012.1 hPa - - - -
1777257229 18.33° C 26% 1012 hPa - - - -
1777256329 18.33° C 25% 1011.9 hPa - - - -

* Rain since midnight (hover to see other rain measurements)
** Current wind speed in m/s (hover to see current wind gust speed)